createdAt,value
2023-01-26T00:01:17.697Z,4.90
2023-01-26T00:06:21.381Z,4.90
2023-01-26T00:11:29.295Z,4.80
2023-01-26T00:16:32.505Z,4.80
2023-01-26T00:21:34.913Z,4.80
2023-01-26T00:26:36.944Z,4.80
2023-01-26T00:36:41.966Z,4.80
2023-01-26T00:42:02.547Z,4.80
2023-01-26T00:47:06.487Z,4.80
2023-01-26T00:52:08.999Z,4.80
2023-01-26T00:57:11.252Z,4.80
2023-01-26T01:02:13.397Z,4.80
2023-01-26T01:07:15.674Z,4.80
2023-01-26T01:12:18.503Z,4.80
2023-01-26T01:22:24.150Z,4.70
2023-01-26T01:27:27.649Z,4.60
2023-01-26T01:32:30.024Z,4.70
2023-01-26T01:37:33.538Z,4.70
2023-01-26T01:42:35.654Z,4.60
2023-01-26T01:47:37.816Z,4.70
2023-01-26T01:52:40.774Z,4.60
2023-01-26T01:57:51.631Z,4.70
2023-01-26T02:03:11.456Z,4.70
2023-01-26T02:08:16.973Z,4.70
2023-01-26T02:13:20.086Z,4.90
2023-01-26T02:18:22.258Z,4.70
2023-01-26T02:23:45.824Z,4.60
2023-01-26T02:28:48.599Z,4.60
2023-01-26T02:33:51.177Z,4.60
2023-01-26T02:38:53.946Z,4.60
2023-01-26T02:43:56.162Z,4.60
2023-01-26T02:49:17.162Z,4.60
2023-01-26T02:54:38.117Z,4.60
2023-01-26T02:59:40.360Z,4.60
2023-01-26T03:04:43.797Z,4.60
2023-01-26T03:09:46.165Z,4.60
2023-01-26T03:15:08.269Z,4.70
2023-01-26T03:20:29.815Z,4.70
2023-01-26T03:25:51.237Z,4.70
2023-01-26T03:30:57.233Z,4.60
2023-01-26T03:35:59.754Z,4.70
2023-01-26T03:41:20.856Z,4.70
2023-01-26T03:46:42.388Z,4.60
2023-01-26T03:52:05.086Z,4.60
2023-01-26T03:57:07.423Z,4.50
2023-01-26T04:02:30.773Z,4.60
2023-01-26T04:07:51.861Z,4.60
2023-01-26T04:13:12.648Z,4.60
2023-01-26T04:18:34.921Z,4.60
2023-01-26T04:23:37.166Z,4.60
2023-01-26T04:28:41.727Z,4.60
2023-01-26T04:33:44.124Z,4.60
2023-01-26T04:38:46.343Z,4.70
2023-01-26T04:43:50.863Z,4.60
2023-01-26T04:48:53.267Z,4.70
2023-01-26T04:53:56.248Z,4.70
2023-01-26T04:59:02.395Z,4.60
2023-01-26T05:04:06.924Z,4.80
2023-01-26T05:09:09.448Z,4.60
2023-01-26T05:14:12.531Z,4.70
2023-01-26T05:19:18.186Z,4.60
2023-01-26T05:24:20.896Z,4.70
2023-01-26T05:29:23.800Z,4.60
2023-01-26T05:34:26.072Z,4.60
2023-01-26T05:39:28.661Z,4.60
2023-01-26T05:44:32.663Z,5.10
2023-01-26T05:49:35.747Z,4.60
2023-01-26T05:54:37.941Z,4.60
2023-01-26T05:59:41.281Z,4.90
2023-01-26T06:04:44.121Z,4.60
2023-01-26T06:09:46.406Z,4.60
2023-01-26T06:14:50.102Z,4.70
2023-01-26T06:19:52.816Z,4.60
2023-01-26T06:24:55.333Z,4.60
2023-01-26T06:29:57.428Z,4.80
2023-01-26T06:34:59.519Z,4.90
2023-01-26T06:40:01.865Z,4.70
2023-01-26T06:45:04.524Z,4.60
2023-01-26T06:50:07.389Z,4.60
2023-01-26T06:55:36.149Z,4.60
2023-01-26T07:00:42.052Z,4.60
2023-01-26T07:05:47.785Z,4.60
2023-01-26T07:10:50.711Z,4.50
2023-01-26T07:15:59.759Z,4.40
2023-01-26T07:21:13.245Z,4.40
2023-01-26T07:26:15.473Z,4.40
2023-01-26T07:31:17.700Z,4.40
2023-01-26T07:36:19.823Z,4.40
2023-01-26T07:46:24.613Z,4.50
2023-01-26T07:51:26.659Z,4.40
2023-01-26T07:56:28.701Z,4.60
2023-01-26T08:01:30.817Z,4.50
2023-01-26T08:06:32.971Z,4.70
2023-01-26T08:11:35.204Z,4.60
2023-01-26T08:16:37.428Z,4.40
2023-01-26T08:21:39.644Z,4.40
2023-01-26T08:26:41.930Z,4.40
2023-01-26T08:31:44.078Z,4.40
2023-01-26T08:36:46.516Z,4.40
2023-01-26T08:41:48.607Z,4.40
2023-01-26T08:46:50.694Z,4.50
2023-01-26T08:51:52.821Z,4.60
2023-01-26T08:56:55.407Z,4.60
2023-01-26T09:01:57.588Z,4.50
2023-01-26T09:06:59.959Z,4.80
2023-01-26T09:12:02.131Z,4.60
2023-01-26T09:17:04.302Z,4.60
2023-01-26T09:22:06.714Z,4.60
2023-01-26T09:27:09.208Z,4.80
2023-01-26T09:32:11.277Z,4.60
2023-01-26T09:37:14.426Z,4.60
2023-01-26T09:42:16.446Z,4.60
2023-01-26T09:48:02.687Z,4.60
2023-01-26T09:53:14.941Z,4.60
2023-01-26T09:58:38.116Z,4.70
2023-01-26T10:03:46.492Z,4.70
2023-01-26T10:08:50.135Z,4.80
2023-01-26T10:13:59.280Z,4.80
2023-01-26T10:19:16.596Z,4.80
2023-01-26T10:24:23.918Z,4.70
2023-01-26T10:29:26.045Z,4.80
2023-01-26T10:34:28.685Z,4.80
2023-01-26T10:39:30.852Z,4.80
2023-01-26T10:44:39.390Z,4.70
2023-01-26T10:49:41.677Z,4.70
2023-01-26T10:54:48.254Z,4.80
2023-01-26T11:00:07.794Z,4.70
2023-01-26T11:05:10.109Z,4.70
2023-01-26T11:10:27.316Z,4.60
2023-01-26T11:15:41.306Z,4.60
2023-01-26T11:20:53.482Z,4.60
2023-01-26T11:26:33.664Z,4.70
2023-01-26T11:31:56.786Z,4.70
2023-01-26T11:36:58.973Z,4.70
2023-01-26T11:42:25.690Z,4.70
2023-01-26T11:47:39.858Z,4.70
2023-01-26T11:53:09.927Z,4.80
2023-01-26T11:58:15.151Z,4.80
2023-01-26T12:03:40.511Z,4.80
2023-01-26T12:08:53.427Z,5.10
2023-01-26T12:14:01.274Z,4.90
2023-01-26T12:19:12.387Z,4.80
2023-01-26T12:24:48.332Z,4.80
2023-01-26T12:29:52.150Z,4.80
2023-01-26T12:34:54.385Z,4.80
2023-01-26T12:40:09.229Z,4.80
2023-01-26T12:45:20.467Z,4.70
2023-01-26T12:50:45.697Z,4.90
2023-01-26T12:55:52.109Z,4.70
2023-01-26T13:01:09.076Z,4.70
2023-01-26T13:06:14.209Z,4.60
2023-01-26T13:11:39.264Z,4.60
2023-01-26T13:16:41.389Z,4.60
2023-01-26T13:21:44.928Z,4.60
2023-01-26T13:26:52.171Z,4.60
2023-01-26T13:31:55.948Z,4.70
2023-01-26T13:37:08.866Z,4.80
2023-01-26T13:42:24.061Z,4.70
2023-01-26T13:47:39.357Z,4.70
2023-01-26T13:52:42.620Z,4.70
2023-01-26T13:57:45.096Z,4.60
2023-01-26T14:02:51.546Z,4.60
2023-01-26T14:07:53.805Z,4.60
2023-01-26T14:13:04.164Z,4.60
2023-01-26T14:18:06.368Z,4.60
2023-01-26T14:23:15.525Z,4.60
2023-01-26T14:28:21.738Z,4.60
2023-01-26T14:33:24.814Z,4.60
2023-01-26T14:38:40.880Z,4.60
2023-01-26T14:49:07.495Z,4.60
2023-01-26T14:54:25.433Z,4.60
2023-01-26T14:59:36.226Z,4.60
2023-01-26T15:04:40.462Z,4.70
2023-01-26T15:09:51.710Z,4.70
2023-01-26T15:14:59.249Z,4.80
2023-01-26T15:20:01.390Z,4.70
2023-01-26T15:25:17.692Z,4.70
2023-01-26T15:30:38.655Z,4.80
2023-01-26T15:35:40.861Z,4.70
2023-01-26T15:40:43.022Z,4.70
2023-01-26T15:45:48.285Z,4.60
2023-01-26T15:50:51.225Z,4.60
2023-01-26T15:55:55.294Z,4.50
2023-01-26T16:00:58.060Z,4.40
2023-01-26T16:06:00.205Z,4.60
2023-01-26T16:11:02.334Z,2.50
2023-01-26T16:16:04.881Z,4.70
2023-01-26T16:21:19.174Z,4.40
2023-01-26T16:26:21.265Z,4.30
2023-01-26T16:31:30.367Z,4.30
2023-01-26T16:36:32.669Z,4.30
2023-01-26T16:41:34.858Z,4.30
2023-01-26T16:46:37.039Z,4.20
2023-01-26T16:51:39.945Z,4.20
2023-01-26T16:56:42.248Z,4.20
2023-01-26T17:01:44.284Z,4.00
2023-01-26T17:06:46.558Z,4.00
2023-01-26T17:11:48.682Z,4.00
2023-01-26T17:16:50.830Z,4.00
2023-01-26T17:21:52.985Z,4.00
2023-01-26T17:26:55.315Z,3.90
2023-01-26T17:31:57.567Z,4.30
2023-01-26T17:37:00.498Z,4.10
2023-01-26T17:42:02.640Z,4.10
2023-01-26T17:52:08.221Z,4.20
2023-01-26T17:57:10.375Z,4.20
2023-01-26T18:02:12.675Z,4.10
2023-01-26T18:07:14.711Z,4.10
2023-01-26T18:12:16.839Z,4.10
2023-01-26T18:17:19.012Z,4.10
2023-01-26T18:22:21.242Z,4.30
2023-01-26T18:27:23.407Z,4.10
2023-01-26T18:32:25.613Z,4.10
2023-01-26T18:37:28.394Z,4.20
2023-01-26T18:42:30.960Z,4.10
2023-01-26T18:47:33.136Z,4.10
2023-01-26T18:52:35.219Z,4.10
2023-01-26T18:57:37.395Z,4.10
2023-01-26T19:02:39.634Z,4.40
2023-01-26T19:07:41.836Z,4.00
2023-01-26T19:12:43.944Z,4.10
2023-01-26T19:17:46.337Z,4.10
2023-01-26T19:22:53.923Z,4.10
2023-01-26T19:27:56.035Z,4.10
2023-01-26T19:33:16.723Z,4.10
2023-01-26T19:38:19.250Z,5.40
2023-01-26T19:43:21.494Z,4.10
2023-01-26T19:48:28.088Z,4.10
2023-01-26T19:53:35.710Z,4.10
2023-01-26T19:58:38.514Z,4.10
2023-01-26T20:03:40.637Z,4.30
2023-01-26T20:13:45.554Z,4.10
2023-01-26T20:18:47.660Z,4.20
2023-01-26T20:23:54.777Z,4.30
2023-01-26T20:28:58.365Z,4.20
2023-01-26T20:34:01.949Z,4.20
2023-01-26T20:39:05.007Z,4.20
2023-01-26T20:44:07.683Z,4.20
2023-01-26T20:49:15.369Z,4.20
2023-01-26T20:54:17.907Z,4.20
2023-01-26T20:59:21.990Z,4.20
2023-01-26T21:04:24.238Z,4.20
2023-01-26T21:09:26.457Z,4.50
2023-01-26T21:14:28.630Z,4.10
2023-01-26T21:19:30.715Z,4.20
2023-01-26T21:24:35.464Z,4.10
2023-01-26T21:34:43.548Z,4.20
2023-01-26T21:39:45.678Z,4.20
2023-01-26T21:50:10.330Z,4.20
2023-01-26T21:55:12.654Z,4.20
2023-01-26T22:00:15.152Z,4.10
2023-01-26T22:05:17.315Z,4.20
2023-01-26T22:10:19.434Z,4.20
2023-01-26T22:15:21.523Z,4.20
2023-01-26T22:20:23.642Z,4.20
2023-01-26T22:25:25.751Z,4.20
2023-01-26T22:30:27.843Z,4.20
2023-01-26T22:35:31.593Z,4.30
2023-01-26T22:40:33.837Z,4.30
2023-01-26T22:45:36.085Z,4.30
2023-01-26T22:50:38.185Z,4.30
2023-01-26T22:55:42.765Z,4.60
2023-01-26T23:00:44.921Z,4.30
2023-01-26T23:05:47.781Z,4.20
2023-01-26T23:10:49.888Z,4.40
2023-01-26T23:15:51.977Z,4.20
2023-01-26T23:25:59.045Z,4.20
2023-01-26T23:31:02.036Z,4.10
2023-01-26T23:36:05.932Z,4.40
2023-01-26T23:46:11.893Z,4.10
2023-01-26T23:51:14.048Z,4.10
2023-01-26T23:56:17.556Z,4.10
